Time;durP1;ratioP1;P1;durP2;ratioP2;P2;SDS_P1;SDS_P2;PMS_P1;PMS_P2;Temp;Humidity;BMP_temperature;BMP_pressure;BME280_temperature;BME280_humidity;BME280_pressure;Samples;Min_cycle;Max_cycle;Signal;HPM_P1;HPM_P2
2024/03/03 00:00:39;;;;;;;;;5.50;5.50;;;;;7.77;86.56;99160.84;5071978;28;72247;-69
2024/03/03 00:03:05;;;;;;;;;7.25;7.25;;;;;7.81;86.44;99153.75;5067973;28;51682;-69
2024/03/03 00:05:30;;;;;;;;;9.00;7.00;;;;;7.79;86.27;99153.81;5068017;28;45276;-69
2024/03/03 00:07:55;;;;;;;;;6.00;5.00;;;;;7.78;86.37;99154.72;5071237;27;70831;-69
2024/03/03 00:10:20;;;;;;;;;11.25;8.00;;;;;7.76;86.47;99160.91;5074251;28;73791;-69
2024/03/03 00:12:46;;;;;;;;;9.00;4.50;;;;;7.73;86.12;99161.88;5071402;27;67595;-69
2024/03/03 00:15:11;;;;;;;;;9.25;9.00;;;;;7.73;86.43;99158.41;5068482;27;45912;-70
2024/03/03 00:17:38;;;;;;;;;9.25;8.25;;;;;7.73;86.16;99174.03;5074263;27;71923;-69
2024/03/03 00:20:04;;;;;;;;;8.00;6.00;;;;;7.72;86.21;99174.94;5072624;28;45410;-70
2024/03/03 00:22:31;;;;;;;;;12.75;9.75;;;;;7.71;86.29;99176.72;5070766;27;45451;-70
2024/03/03 00:24:56;;;;;;;;;16.25;10.25;;;;;7.71;86.39;99189.72;5070826;27;45460;-70
2024/03/03 00:27:21;;;;;;;;;15.25;11.00;;;;;7.71;86.40;99192.31;5076873;27;45930;-70
2024/03/03 00:29:47;;;;;;;;;13.25;11.00;;;;;7.74;86.32;99193.97;5084185;27;75445;-69
2024/03/03 00:32:12;;;;;;;;;13.25;11.25;;;;;7.74;86.17;99197.41;5075344;27;63288;-69
2024/03/03 00:34:37;;;;;;;;;13.50;11.25;;;;;7.77;86.31;99197.31;5068016;27;64236;-70
2024/03/03 00:37:03;;;;;;;;;13.00;10.00;;;;;7.79;86.00;99198.09;5077738;27;72831;-70
2024/03/03 00:39:28;;;;;;;;;10.00;7.00;;;;;7.78;85.74;99193.78;5070041;28;45394;-71
2024/03/03 00:41:53;;;;;;;;;10.25;7.75;;;;;7.78;85.52;99198.16;5077040;27;73419;-70
2024/03/03 00:44:19;;;;;;;;;12.25;10.00;;;;;7.81;85.54;99192.81;5073245;27;68327;-69
2024/03/03 00:46:46;;;;;;;;;15.50;10.50;;;;;7.84;85.69;99200.50;5068465;28;45521;-69
2024/03/03 00:49:12;;;;;;;;;18.75;12.50;;;;;7.85;85.60;99199.59;5070159;27;45491;-69
2024/03/03 00:51:39;;;;;;;;;16.25;14.00;;;;;7.90;85.62;99196.81;5070478;28;45462;-69
2024/03/03 00:54:04;;;;;;;;;23.75;17.75;;;;;7.92;85.63;99195.81;5078159;27;45357;-69
2024/03/03 00:56:29;;;;;;;;;27.50;25.25;;;;;7.96;85.91;99199.16;5045419;28;45524;-69
2024/03/03 00:58:55;;;;;;;;;26.50;21.25;;;;;7.96;85.50;99201.75;5071428;27;46126;-69
2024/03/03 01:01:20;;;;;;;;;20.50;19.00;;;;;7.96;85.70;99197.38;5061642;28;45340;-70
2024/03/03 01:03:46;;;;;;;;;24.25;19.25;;;;;7.99;85.77;99196.44;5069548;27;45402;-68
2024/03/03 01:06:11;;;;;;;;;25.25;22.75;;;;;8.01;85.95;99194.59;5067658;27;45260;-69
2024/03/03 01:08:36;;;;;;;;;24.75;19.00;;;;;8.04;86.02;99184.06;5087963;27;47148;-69
2024/03/03 01:11:02;;;;;;;;;25.25;23.75;;;;;8.05;86.25;99169.28;5072006;27;60753;-69
2024/03/03 01:13:27;;;;;;;;;154.00;125.50;;;;;8.07;85.67;99172.66;5068023;27;45377;-69
2024/03/03 01:15:52;;;;;;;;;30.75;25.25;;;;;8.06;85.92;99170.97;5070227;28;58270;-69
2024/03/03 01:18:18;;;;;;;;;22.75;21.00;;;;;8.03;85.65;99176.31;5074242;27;62402;-70
2024/03/03 01:20:43;;;;;;;;;31.00;22.00;;;;;8.02;85.79;99178.06;5076717;27;45467;-69
2024/03/03 01:23:09;;;;;;;;;28.50;24.50;;;;;7.98;86.00;99176.50;5087729;27;45316;-68
2024/03/03 01:25:35;;;;;;;;;28.50;22.25;;;;;7.97;86.69;99178.25;5072539;28;45242;-68
2024/03/03 01:28:00;;;;;;;;;44.50;33.50;;;;;7.95;86.77;99179.22;5068364;27;45915;-68
2024/03/03 01:30:25;;;;;;;;;28.50;21.25;;;;;7.92;88.16;99192.38;5064938;28;69441;-67
2024/03/03 01:32:51;;;;;;;;;26.75;22.50;;;;;7.95;87.31;99198.31;5081296;27;45532;-68
2024/03/03 01:35:16;;;;;;;;;36.50;21.25;;;;;7.95;87.11;99194.84;5077101;28;45446;-69
2024/03/03 01:37:42;;;;;;;;;40.00;34.00;;;;;7.96;87.29;99197.38;5036048;28;48445;-69
2024/03/03 01:40:12;;;;;;;;;26.25;20.00;;;;;7.94;86.93;99191.41;5073907;28;67603;-69
2024/03/03 01:42:38;;;;;;;;;19.75;17.00;;;;;7.92;86.67;99181.97;5068899;28;45286;-69
2024/03/03 01:45:03;;;;;;;;;26.75;23.25;;;;;7.91;86.72;99186.31;5069124;28;46570;-68
2024/03/03 01:47:29;;;;;;;;;24.00;17.00;;;;;7.86;86.63;99184.81;5057215;28;47226;-69
2024/03/03 01:49:55;;;;;;;;;27.75;22.00;;;;;7.85;86.61;99180.53;5071140;27;73329;-69
2024/03/03 01:52:20;;;;;;;;;27.50;21.75;;;;;7.80;86.80;99175.50;5068073;27;45212;-69
2024/03/03 01:54:45;;;;;;;;;25.25;23.00;;;;;7.83;86.93;99185.78;5070869;28;73237;-69
2024/03/03 01:57:16;;;;;;;;;30.50;24.75;;;;;7.85;87.21;99185.72;5067370;27;45709;-69
2024/03/03 01:59:42;;;;;;;;;31.50;22.50;;;;;7.85;86.82;99190.94;5074341;27;46065;-69
2024/03/03 02:02:08;;;;;;;;;27.00;22.00;;;;;7.82;86.95;99191.91;5077197;27;45393;-69
2024/03/03 02:04:34;;;;;;;;;23.00;20.50;;;;;7.82;86.59;99188.44;5068399;27;45374;-67
2024/03/03 02:07:00;;;;;;;;;25.50;19.25;;;;;7.75;86.20;99187.84;5068963;27;45366;-68
2024/03/03 02:09:26;;;;;;;;;25.00;18.00;;;;;7.68;86.45;99182.03;5073569;28;45444;-68
2024/03/03 02:11:51;;;;;;;;;24.00;20.75;;;;;7.74;86.73;99186.16;5066929;28;45434;-68
2024/03/03 02:14:17;;;;;;;;;20.25;18.00;;;;;7.77;86.71;99193.84;5064865;27;45568;-70
2024/03/03 02:16:42;;;;;;;;;26.25;22.25;;;;;7.76;86.94;99194.75;5059389;27;55198;-68
2024/03/03 02:19:07;;;;;;;;;29.25;24.25;;;;;7.75;86.71;99193.88;5090412;27;45306;-69
2024/03/03 02:21:32;;;;;;;;;27.75;23.50;;;;;7.75;86.99;99199.09;5081385;27;48211;-69
2024/03/03 02:23:58;;;;;;;;;28.75;25.25;;;;;7.76;86.83;99195.59;5060625;27;73093;-69
2024/03/03 02:26:25;;;;;;;;;26.25;22.00;;;;;7.75;87.00;99195.66;5073270;28;62707;-69
2024/03/03 02:28:52;;;;;;;;;22.25;19.25;;;;;7.72;86.88;99190.56;5064684;27;45335;-69
2024/03/03 02:31:17;;;;;;;;;27.50;22.50;;;;;7.69;87.13;99194.16;5074250;28;45471;-69
2024/03/03 02:33:43;;;;;;;;;26.00;21.25;;;;;7.68;86.97;99186.41;5064861;28;45261;-68
2024/03/03 02:36:09;;;;;;;;;22.75;20.50;;;;;7.71;87.40;99197.53;5063874;27;49843;-69
2024/03/03 02:38:35;;;;;;;;;26.25;20.50;;;;;7.74;87.28;99196.59;5065006;27;45303;-70
2024/03/03 02:41:00;;;;;;;;;24.00;19.75;;;;;7.72;86.90;99191.44;5075482;28;45293;-69
2024/03/03 02:43:25;;;;;;;;;21.50;18.75;;;;;7.77;87.19;99188.63;5062660;27;73205;-68
2024/03/03 02:45:51;;;;;;;;;24.25;17.50;;;;;7.78;87.04;99198.16;5044377;28;53693;-69
2024/03/03 02:48:18;;;;;;;;;23.25;19.00;;;;;7.78;86.88;99193.78;5072722;27;45237;-68
2024/03/03 02:50:43;;;;;;;;;17.25;15.00;;;;;7.75;86.87;99185.25;5065277;28;45355;-69
2024/03/03 02:53:08;;;;;;;;;17.50;12.50;;;;;7.73;86.88;99193.09;5072113;27;47322;-67
2024/03/03 02:55:34;;;;;;;;;15.75;12.00;;;;;7.76;87.10;99198.19;5081854;27;46138;-68
2024/03/03 02:57:59;;;;;;;;;27.25;20.25;;;;;7.82;87.51;99201.47;5066798;27;72782;-68
2024/03/03 03:00:24;;;;;;;;;21.50;15.00;;;;;7.87;87.67;99209.94;5070351;27;67197;-68
2024/03/03 03:02:50;;;;;;;;;13.50;9.25;;;;;7.92;87.34;99213.22;5070139;27;69764;-68
2024/03/03 03:05:15;;;;;;;;;22.00;16.25;;;;;7.91;86.96;99217.56;5072156;27;62793;-70
2024/03/03 03:07:40;;;;;;;;;18.50;15.25;;;;;7.92;86.99;99221.03;5070613;27;73036;-69
2024/03/03 03:10:07;;;;;;;;;15.00;15.00;;;;;7.95;87.17;99223.50;5077654;27;61321;-70
2024/03/03 03:12:32;;;;;;;;;13.50;10.25;;;;;7.96;87.06;99215.63;5071382;27;45467;-69
2024/03/03 03:14:58;;;;;;;;;9.25;8.00;;;;;7.97;86.74;99212.13;5069180;27;61598;-69
2024/03/03 03:17:23;;;;;;;;;13.75;10.75;;;;;7.97;86.86;99201.69;5079117;27;45308;-69
2024/03/03 03:19:48;;;;;;;;;14.00;11.00;;;;;7.98;86.91;99207.75;5075049;27;69225;-69
2024/03/03 03:22:15;;;;;;;;;9.50;9.50;;;;;7.98;86.83;99205.13;5070107;27;45234;-69
2024/03/03 03:24:41;;;;;;;;;6.25;6.25;;;;;7.96;87.16;99209.56;5077075;27;45424;-68
2024/03/03 03:27:06;;;;;;;;;8.50;7.50;;;;;7.97;86.88;99213.88;5075987;27;45482;-68
2024/03/03 03:29:31;;;;;;;;;10.50;7.25;;;;;7.99;87.15;99207.69;5077241;27;50262;-68
2024/03/03 03:31:57;;;;;;;;;11.25;8.50;;;;;8.04;87.00;99214.47;5075503;27;71980;-68
2024/03/03 03:34:22;;;;;;;;;14.25;9.00;;;;;8.07;86.98;99211.72;5080607;27;66420;-69
2024/03/03 03:36:47;;;;;;;;;12.00;10.00;;;;;8.09;86.91;99212.50;5071515;27;68724;-68
2024/03/03 03:39:13;;;;;;;;;8.50;7.50;;;;;8.10;86.86;99212.44;5071479;28;45985;-68
2024/03/03 03:41:50;;;;;;;;;11.00;9.00;;;;;8.09;86.74;99212.50;5078552;27;45394;-69
2024/03/03 03:44:18;;;;;;;;;9.25;9.00;;;;;8.09;86.35;99205.56;5069603;28;45952;-68
2024/03/03 03:46:43;;;;;;;;;8.00;7.00;;;;;8.04;86.36;99217.94;5070259;27;45782;-69
2024/03/03 03:49:10;;;;;;;;;9.50;7.50;;;;;8.03;86.39;99221.44;5077270;27;56495;-70
2024/03/03 03:51:36;;;;;;;;;12.25;9.00;;;;;8.02;86.14;99214.53;5077816;27;45474;-69
2024/03/03 03:54:03;;;;;;;;;10.75;8.50;;;;;8.00;86.36;99211.13;5075583;27;45472;-69
2024/03/03 03:56:28;;;;;;;;;10.00;7.75;;;;;8.02;86.56;99214.53;5078489;27;45374;-68
2024/03/03 03:58:53;;;;;;;;;10.75;9.75;;;;;8.04;86.65;99211.84;5079398;27;45448;-69
2024/03/03 04:01:22;;;;;;;;;11.75;8.25;;;;;8.03;86.47;99213.63;5067727;27;73375;-68
2024/03/03 04:03:47;;;;;;;;;8.00;8.00;;;;;8.05;86.29;99213.56;5072026;28;45297;-69
2024/03/03 04:06:13;;;;;;;;;12.00;10.00;;;;;8.07;86.46;99219.56;5073705;27;73249;-69
2024/03/03 04:08:40;;;;;;;;;8.50;7.25;;;;;8.05;86.05;99224.81;5081095;27;46002;-70
2024/03/03 04:11:05;;;;;;;;;11.00;7.00;;;;;8.01;85.69;99218.06;5074037;27;46387;-70
2024/03/03 04:13:30;;;;;;;;;8.75;7.00;;;;;7.99;85.71;99218.09;5075599;28;74580;-70
2024/03/03 04:15:55;;;;;;;;;9.00;7.50;;;;;7.97;85.59;99219.09;5064621;28;73198;-70
2024/03/03 04:18:21;;;;;;;;;9.50;8.25;;;;;7.96;85.79;99213.00;5074809;27;64546;-70
2024/03/03 04:20:46;;;;;;;;;7.00;7.00;;;;;8.01;86.14;99223.25;5070411;28;68615;-70
2024/03/03 04:23:11;;;;;;;;;7.75;5.00;;;;;8.01;85.49;99222.41;5076890;28;64912;-70
2024/03/03 04:25:37;;;;;;;;;9.00;6.00;;;;;7.96;85.48;99227.81;5066786;28;65790;-70
2024/03/03 04:28:02;;;;;;;;;3.00;3.00;;;;;7.92;85.24;99226.25;5077080;27;56635;-69
2024/03/03 04:30:28;;;;;;;;;3.25;2.50;;;;;7.90;85.04;99226.31;5074921;27;45501;-70
2024/03/03 04:32:53;;;;;;;;;9.25;7.00;;;;;7.89;85.47;99232.41;5074052;27;47280;-69
2024/03/03 04:35:18;;;;;;;;;6.75;5.00;;;;;7.85;85.27;99233.44;5079788;27;45347;-70
2024/03/03 04:37:44;;;;;;;;;10.50;4.00;;;;;7.84;85.24;99238.72;5069463;27;62378;-70
2024/03/03 04:40:10;;;;;;;;;8.00;6.75;;;;;7.84;85.31;99244.75;5064369;27;45439;-70
2024/03/03 04:42:35;;;;;;;;;10.00;8.00;;;;;7.82;85.55;99246.59;5073558;28;45503;-71
2024/03/03 04:45:01;;;;;;;;;14.75;8.50;;;;;7.81;85.68;99244.91;5066568;27;73567;-69
2024/03/03 04:47:26;;;;;;;;;10.00;9.00;;;;;7.84;85.65;99255.19;5075855;27;45511;-69
2024/03/03 04:49:52;;;;;;;;;8.00;6.50;;;;;7.84;85.72;99259.56;5078950;27;45303;-69
2024/03/03 04:52:18;;;;;;;;;14.50;9.00;;;;;7.84;86.09;99257.78;5068098;28;71457;-69
2024/03/03 04:54:43;;;;;;;;;16.50;10.00;;;;;7.90;86.12;99267.13;5075617;27;45418;-69
2024/03/03 04:57:08;;;;;;;;;9.75;9.75;;;;;7.90;86.13;99262.75;5078153;27;45374;-69
2024/03/03 04:59:34;;;;;;;;;8.75;7.25;;;;;7.94;86.30;99266.94;5069183;28;45348;-69
2024/03/03 05:01:59;;;;;;;;;10.00;10.00;;;;;7.95;86.25;99268.66;5057087;28;47764;-69
2024/03/03 05:04:27;;;;;;;;;11.50;8.00;;;;;7.92;86.10;99266.16;5073428;28;67929;-69
2024/03/03 05:06:52;;;;;;;;;10.75;10.00;;;;;7.85;85.79;99266.47;5074167;27;45376;-69
2024/03/03 05:09:18;;;;;;;;;15.50;11.00;;;;;7.79;85.96;99265.78;5071526;27;45707;-68
2024/03/03 05:11:44;;;;;;;;;15.50;11.25;;;;;7.79;86.23;99264.94;5065964;28;46155;-69
2024/03/03 05:14:09;;;;;;;;;15.25;11.50;;;;;7.79;86.49;99272.75;5073283;28;45482;-69
2024/03/03 05:16:34;;;;;;;;;18.50;15.50;;;;;7.78;86.42;99274.50;5072638;28;47173;-69
2024/03/03 05:19:00;;;;;;;;;19.75;14.75;;;;;7.76;86.99;99271.13;5076650;27;45322;-69
2024/03/03 05:21:25;;;;;;;;;18.50;16.75;;;;;7.77;87.34;99279.78;5073795;28;75563;-69
2024/03/03 05:23:50;;;;;;;;;16.25;14.50;;;;;7.78;87.34;99274.50;5074078;27;70574;-68
2024/03/03 05:26:16;;;;;;;;;17.25;16.00;;;;;7.79;87.48;99278.81;5069266;27;45417;-69
2024/03/03 05:28:41;;;;;;;;;23.75;19.50;;;;;7.82;87.58;99280.44;5073517;27;45567;-69
2024/03/03 05:31:07;;;;;;;;;19.25;14.75;;;;;7.85;87.73;99284.69;5065174;28;45300;-69
2024/03/03 05:33:32;;;;;;;;;18.75;15.00;;;;;7.85;87.51;99284.69;5078152;27;45790;-69
2024/03/03 05:35:58;;;;;;;;;16.75;12.75;;;;;7.82;87.03;99285.66;5072228;28;45291;-69
2024/03/03 05:38:23;;;;;;;;;18.25;16.00;;;;;7.75;87.14;99277.22;5065276;27;45510;-70
2024/03/03 05:40:48;;;;;;;;;19.25;15.75;;;;;7.72;86.90;99286.91;5075511;27;51880;-69
2024/03/03 05:43:14;;;;;;;;;21.00;17.25;;;;;7.72;87.18;99286.91;5068543;27;45426;-69
2024/03/03 05:45:39;;;;;;;;;22.00;17.00;;;;;7.70;87.28;99292.19;5075672;27;59124;-69
2024/03/03 05:48:05;;;;;;;;;22.75;17.25;;;;;7.71;87.35;99301.69;5073552;27;58745;-68
2024/03/03 05:50:31;;;;;;;;;24.75;23.25;;;;;7.69;87.24;99300.06;5076289;27;45640;-68
2024/03/03 05:52:56;;;;;;;;;22.25;16.25;;;;;7.68;87.46;99309.59;5079663;28;45325;-69
2024/03/03 05:55:21;;;;;;;;;18.50;16.25;;;;;7.68;87.49;99308.78;5065412;27;54670;-69
2024/03/03 05:57:47;;;;;;;;;17.00;14.00;;;;;7.68;87.26;99316.59;5071467;27;74308;-69
2024/03/03 06:00:14;;;;;;;;;22.75;22.25;;;;;7.68;87.51;99307.00;5077321;27;47049;-69
2024/03/03 06:02:40;;;;;;;;;22.50;21.00;;;;;7.64;87.27;99302.00;5074202;27;45529;-68
2024/03/03 06:05:06;;;;;;;;;21.00;19.50;;;;;7.64;87.32;99302.84;5068198;27;45525;-69
2024/03/03 06:07:31;;;;;;;;;23.00;18.75;;;;;7.62;87.16;99306.41;5076589;27;45461;-69
2024/03/03 06:09:57;;;;;;;;;27.50;20.00;;;;;7.62;87.55;99303.81;5064823;28;47127;-69
2024/03/03 06:12:22;;;;;;;;;29.75;18.75;;;;;7.60;87.66;99303.88;5059898;28;68077;-69
2024/03/03 06:14:47;;;;;;;;;19.25;17.50;;;;;7.58;87.28;99301.31;5069213;28;62455;-69
2024/03/03 06:17:13;;;;;;;;;22.25;20.75;;;;;7.52;87.50;99304.13;5070372;27;58501;-69
2024/03/03 06:19:38;;;;;;;;;22.75;17.75;;;;;7.53;87.69;99307.59;5068609;27;46869;-69
2024/03/03 06:22:04;;;;;;;;;22.75;19.50;;;;;7.53;87.93;99315.41;5070620;28;63085;-68
2024/03/03 06:24:29;;;;;;;;;25.00;20.50;;;;;7.54;88.16;99311.88;5061395;27;61376;-68
2024/03/03 06:26:54;;;;;;;;;29.75;22.25;;;;;7.55;88.04;99317.03;5073934;27;52685;-68
2024/03/03 06:29:20;;;;;;;;;21.50;19.75;;;;;7.58;88.18;99316.94;5078176;27;62112;-69
2024/03/03 06:31:46;;;;;;;;;31.50;22.50;;;;;7.63;88.04;99321.94;5079391;27;73130;-69
2024/03/03 06:34:11;;;;;;;;;31.50;25.50;;;;;7.62;88.00;99319.44;5069131;27;45294;-68
2024/03/03 06:36:37;;;;;;;;;28.00;21.75;;;;;7.62;88.19;99322.88;5076697;28;45394;-69
2024/03/03 06:39:05;;;;;;;;;29.75;25.50;;;;;7.61;88.10;99328.97;5077489;27;45968;-69
2024/03/03 06:41:30;;;;;;;;;26.75;24.25;;;;;7.63;88.22;99339.34;5083043;27;45846;-68
2024/03/03 06:43:56;;;;;;;;;27.00;24.25;;;;;7.60;88.04;99345.53;5068204;27;69358;-69
2024/03/03 06:46:21;;;;;;;;;32.75;23.50;;;;;7.58;88.17;99347.34;5071384;27;72749;-69
2024/03/03 06:48:47;;;;;;;;;28.25;23.75;;;;;7.60;88.10;99361.13;5080898;27;46164;-69
2024/03/03 06:51:14;;;;;;;;;31.50;23.00;;;;;7.63;88.30;99361.00;5081165;27;72953;-69
2024/03/03 06:53:39;;;;;;;;;26.25;22.25;;;;;7.60;88.23;99356.78;5069155;27;45360;-69
2024/03/03 06:56:14;;;;;;;;;27.25;20.25;;;;;7.66;88.18;99373.91;5073814;27;45232;-70
2024/03/03 06:58:39;;;;;;;;;24.50;19.75;;;;;7.68;88.23;99379.06;5073435;27;47016;-69
2024/03/03 07:01:04;;;;;;;;;30.25;24.00;;;;;7.66;88.12;99373.06;5073159;28;45428;-70
2024/03/03 07:04:02;;;;;;;;;32.75;24.00;;;;;7.68;88.12;99381.69;5080150;27;61835;-70
2024/03/03 07:06:24;;;;;;;;;33.75;24.00;;;;;7.64;88.04;99386.16;5064146;28;45514;-69
2024/03/03 07:08:49;;;;;;;;;36.75;29.25;;;;;7.65;87.90;99395.66;5070719;27;75342;-70
2024/03/03 07:11:15;;;;;;;;;28.25;24.75;;;;;7.64;88.07;99390.50;5067413;28;45216;-69
2024/03/03 07:13:40;;;;;;;;;32.50;27.25;;;;;7.66;87.99;99397.34;5066522;28;48976;-69
2024/03/03 07:16:06;;;;;;;;;30.25;24.50;;;;;7.66;88.26;99407.75;5061103;28;73089;-69
2024/03/03 07:18:31;;;;;;;;;38.75;32.25;;;;;7.73;88.55;99424.03;5074944;27;47345;-69
2024/03/03 07:20:56;;;;;;;;;77.00;47.00;;;;;7.75;88.50;99415.25;5075616;28;72187;-68
2024/03/03 07:23:22;;;;;;;;;34.00;27.75;;;;;7.77;88.50;99423.00;5079308;28;59672;-68
2024/03/03 07:25:47;;;;;;;;;49.50;37.25;;;;;7.81;88.50;99422.00;5074126;28;45477;-68
2024/03/03 07:28:12;;;;;;;;;36.75;27.50;;;;;7.83;88.70;99416.75;5065760;27;74773;-68
2024/03/03 07:30:38;;;;;;;;;33.50;28.50;;;;;7.85;88.75;99418.38;5083813;27;45505;-68
2024/03/03 07:33:03;;;;;;;;;31.25;26.00;;;;;7.88;88.29;99426.06;5071633;28;66607;-69
2024/03/03 07:35:29;;;;;;;;;30.25;25.50;;;;;7.87;87.80;99421.75;5068257;28;45348;-69
2024/03/03 07:37:54;;;;;;;;;27.75;23.25;;;;;7.84;87.65;99426.22;5062849;27;70679;-69
2024/03/03 07:40:19;;;;;;;;;22.75;22.00;;;;;7.80;87.37;99418.53;5074087;28;71412;-69
2024/03/03 07:42:45;;;;;;;;;28.50;23.50;;;;;7.79;87.53;99429.00;5074260;28;45477;-68
2024/03/03 07:45:10;;;;;;;;;31.00;22.75;;;;;7.78;87.73;99432.53;5062145;28;72161;-69
2024/03/03 07:47:35;;;;;;;;;28.75;24.25;;;;;7.78;87.76;99435.13;5064789;27;47284;-69
2024/03/03 07:50:01;;;;;;;;;36.50;26.50;;;;;7.81;87.64;99435.03;5064602;28;45333;-69
2024/03/03 07:52:26;;;;;;;;;29.50;24.50;;;;;7.86;87.44;99438.31;5064015;28;45348;-69
2024/03/03 07:54:51;;;;;;;;;29.00;22.25;;;;;7.83;87.36;99445.38;5067502;28;63122;-68
2024/03/03 07:57:17;;;;;;;;;34.50;26.75;;;;;7.84;86.99;99445.31;5069114;27;69148;-69
2024/03/03 07:59:42;;;;;;;;;32.50;23.75;;;;;7.84;87.30;99445.31;5062953;27;58670;-69
2024/03/03 08:02:07;;;;;;;;;26.75;25.75;;;;;7.87;87.17;99444.38;5076045;27;66005;-69
2024/03/03 08:04:33;;;;;;;;;31.00;25.50;;;;;7.91;87.05;99448.53;5074329;27;59206;-69
2024/03/03 08:06:58;;;;;;;;;30.75;22.50;;;;;7.94;87.12;99446.66;5066849;27;45694;-69
2024/03/03 08:09:23;;;;;;;;;35.00;28.50;;;;;7.94;86.68;99444.06;5067979;28;62658;-68
2024/03/03 08:11:49;;;;;;;;;27.75;24.50;;;;;7.96;86.43;99442.25;5075856;27;45263;-68
2024/03/03 08:14:14;;;;;;;;;28.00;24.00;;;;;7.93;86.52;99451.94;5057399;28;45466;-68
2024/03/03 08:16:39;;;;;;;;;35.00;24.00;;;;;7.98;86.66;99453.50;5068535;27;73670;-67
2024/03/03 08:19:06;;;;;;;;;32.50;27.75;;;;;8.01;86.54;99456.88;5067002;27;45421;-77
2024/03/03 08:21:31;;;;;;;;;34.00;26.25;;;;;8.01;86.28;99447.31;5072472;27;45279;-74
2024/03/03 08:23:57;;;;;;;;;30.50;24.50;;;;;7.98;86.07;99440.47;5074489;27;45165;-73
2024/03/03 08:26:25;;;;;;;;;23.75;21.00;;;;;8.02;86.20;99441.19;5072018;27;45478;-71
2024/03/03 08:28:50;;;;;;;;;28.75;24.50;;;;;8.07;86.23;99438.41;5071367;27;45592;-71
2024/03/03 08:31:16;;;;;;;;;26.00;23.50;;;;;8.12;85.97;99445.13;5069027;27;45444;-73
2024/03/03 08:33:41;;;;;;;;;35.75;23.50;;;;;8.14;85.63;99443.34;5078667;27;45475;-73
2024/03/03 08:36:06;;;;;;;;;29.00;23.00;;;;;8.23;85.86;99457.75;5074376;27;75344;-72
2024/03/03 08:38:34;;;;;;;;;30.00;25.00;;;;;8.25;85.47;99455.97;5078649;27;72201;-72
2024/03/03 08:40:59;;;;;;;;;30.00;28.50;;;;;8.31;85.40;99462.69;5072030;28;45488;-73
2024/03/03 08:43:24;;;;;;;;;32.75;28.00;;;;;8.36;85.13;99458.16;5079107;27;45489;-70
2024/03/03 08:45:49;;;;;;;;;31.25;27.50;;;;;8.40;84.82;99453.69;5077399;27;68151;-65
2024/03/03 08:48:15;;;;;;;;;27.50;24.50;;;;;8.46;84.96;99464.72;5070226;27;72005;-68
2024/03/03 08:50:40;;;;;;;;;26.00;21.25;;;;;8.54;84.88;99465.28;5074100;27;45671;-67
2024/03/03 08:53:05;;;;;;;;;28.75;24.50;;;;;8.63;84.67;99466.69;5082421;27;45222;-68
2024/03/03 08:55:31;;;;;;;;;31.00;24.25;;;;;8.70;84.57;99472.50;5070418;27;45522;-64
2024/03/03 08:57:56;;;;;;;;;34.75;25.00;;;;;8.71;84.00;99467.25;5065195;28;66726;-63
2024/03/03 09:00:21;;;;;;;;;35.50;27.25;;;;;8.74;84.08;99459.28;5069912;27;52353;-64
2024/03/03 09:02:47;;;;;;;;;29.75;25.50;;;;;8.86;83.94;99484.03;5065413;28;45689;-64
2024/03/03 09:05:12;;;;;;;;;29.25;26.50;;;;;8.85;83.19;99474.53;5073682;28;45446;-63
2024/03/03 09:07:39;;;;;;;;;33.75;24.25;;;;;8.91;83.16;99484.69;5070898;27;45383;-63
2024/03/03 09:10:05;;;;;;;;;30.50;24.00;;;;;8.93;82.54;99487.25;5076099;27;45472;-63
2024/03/03 09:12:30;;;;;;;;;28.75;25.75;;;;;8.95;82.58;99484.56;5071639;27;45438;-62
2024/03/03 09:14:56;;;;;;;;;36.50;27.00;;;;;8.97;82.42;99490.56;5074960;27;73664;-62
2024/03/03 09:17:21;;;;;;;;;27.25;24.25;;;;;9.01;82.05;99499.97;5069429;27;72006;-65
2024/03/03 09:19:46;;;;;;;;;30.00;26.75;;;;;9.02;81.94;99502.53;5070022;28;45532;-64
2024/03/03 09:22:12;;;;;;;;;25.25;25.25;;;;;9.01;81.50;99503.44;5075059;27;45596;-63
2024/03/03 09:24:42;;;;;;;;;30.00;24.75;;;;;9.02;81.28;99505.13;5064852;27;46917;-69
2024/03/03 09:27:07;;;;;;;;;33.75;27.00;;;;;9.10;81.51;99520.47;5051755;27;45510;-68
2024/03/03 09:29:32;;;;;;;;;26.50;22.75;;;;;9.12;81.20;99514.28;5070362;27;69240;-68
2024/03/03 09:31:58;;;;;;;;;28.75;24.75;;;;;9.18;80.80;99517.56;5076364;27;66293;-68
2024/03/03 09:34:24;;;;;;;;;31.50;26.00;;;;;9.21;81.04;99520.91;5065817;28;45949;-68
2024/03/03 09:36:50;;;;;;;;;31.50;24.75;;;;;9.34;80.89;99531.69;5063475;27;45376;-66
2024/03/03 09:39:15;;;;;;;;;29.00;23.75;;;;;9.47;80.88;99538.09;5070975;28;45312;-65
2024/03/03 09:41:41;;;;;;;;;72.00;55.00;;;;;9.54;80.65;99537.84;5069352;28;56202;-67
2024/03/03 09:44:11;;;;;;;;;18.50;18.50;;;;;9.67;80.45;99550.31;5075137;27;45395;-67
2024/03/03 09:46:38;;;;;;;;;32.00;21.75;;;;;9.71;79.67;99547.59;5087123;27;45721;-67
2024/03/03 09:49:03;;;;;;;;;18.50;12.25;;;;;9.75;79.24;99556.97;5071003;28;45411;-66
2024/03/03 09:51:30;;;;;;;;;27.25;23.00;;;;;9.77;79.03;99563.81;5086353;27;45725;-66
2024/03/03 09:53:55;;;;;;;;;24.00;20.25;;;;;9.79;78.64;99582.06;5068639;28;45574;-64
2024/03/03 09:56:22;;;;;;;;;23.75;19.75;;;;;9.78;78.13;99573.38;5066524;27;45411;-67
2024/03/03 09:58:47;;;;;;;;;22.50;20.50;;;;;9.78;77.66;99577.75;5066764;27;45487;-65
2024/03/03 10:01:13;;;;;;;;;23.75;21.25;;;;;9.78;77.52;99582.97;5062385;28;47126;-67
2024/03/03 10:03:39;;;;;;;;;32.25;21.75;;;;;9.82;77.66;99584.53;5070595;28;64335;-66
2024/03/03 10:06:08;;;;;;;;;24.25;22.00;;;;;9.89;77.47;99589.44;5069860;27;45207;-65
2024/03/03 10:08:33;;;;;;;;;26.25;20.50;;;;;9.98;77.52;99588.19;5065062;27;45503;-65
2024/03/03 10:11:01;;;;;;;;;27.25;20.75;;;;;10.03;77.06;99585.38;5068018;27;45335;-66
2024/03/03 10:13:29;;;;;;;;;26.75;19.00;;;;;10.07;76.26;99593.03;5070921;28;46176;-65
2024/03/03 10:15:58;;;;;;;;;20.75;19.00;;;;;10.12;76.18;99603.28;5067115;28;55692;-66
2024/03/03 10:18:24;;;;;;;;;25.00;19.50;;;;;10.15;75.94;99597.94;5069145;27;45423;-66
2024/03/03 10:20:49;;;;;;;;;22.50;19.00;;;;;10.18;75.15;99596.94;5067100;28;51332;-66
2024/03/03 10:23:22;;;;;;;;;25.50;19.50;;;;;10.26;75.61;99603.53;5064883;27;46476;-67
2024/03/03 10:25:55;;;;;;;;;22.25;20.50;;;;;10.33;74.96;99605.91;5070322;28;45946;-66
2024/03/03 10:28:20;;;;;;;;;23.00;18.50;;;;;10.34;74.42;99610.22;5063629;27;45215;-66
2024/03/03 10:30:45;;;;;;;;;20.25;16.25;;;;;10.35;74.78;99606.69;5064749;27;47012;-66
2024/03/03 10:33:11;;;;;;;;;25.25;21.50;;;;;10.36;74.28;99614.47;5065094;27;70685;-64
2024/03/03 10:35:36;;;;;;;;;22.00;20.00;;;;;10.36;74.39;99606.63;5063825;28;45213;-64
2024/03/03 10:38:01;;;;;;;;;26.00;21.25;;;;;10.43;73.89;99609.84;5070569;27;69286;-64
2024/03/03 10:40:31;;;;;;;;;23.25;20.25;;;;;10.54;74.31;99612.81;5074836;27;45637;-66
2024/03/03 10:42:56;;;;;;;;;27.75;21.75;;;;;10.61;74.16;99613.38;5065307;27;47060;-65
2024/03/03 10:45:22;;;;;;;;;22.75;19.50;;;;;10.70;73.52;99612.97;5061668;28;72194;-65
2024/03/03 10:47:49;;;;;;;;;21.00;18.75;;;;;10.76;73.55;99612.66;5071927;27;45592;-66
2024/03/03 10:50:22;;;;;;;;;25.00;19.50;;;;;10.76;72.74;99625.75;5065635;28;45643;-66
2024/03/03 10:52:52;;;;;;;;;19.00;17.50;;;;;10.78;72.39;99628.31;5067309;28;46245;-65
2024/03/03 10:55:17;;;;;;;;;20.75;18.50;;;;;10.78;71.94;99623.06;5063977;28;45790;-66
2024/03/03 10:57:43;;;;;;;;;23.75;19.75;;;;;10.86;72.47;99634.03;5061186;27;45560;-65
2024/03/03 11:00:14;;;;;;;;;22.25;17.00;;;;;10.93;71.85;99637.25;5066452;28;45604;-65
2024/03/03 11:02:41;;;;;;;;;24.25;19.75;;;;;10.98;71.35;99636.09;5061711;28;45553;-65
2024/03/03 11:05:06;;;;;;;;;23.75;15.75;;;;;11.07;71.11;99634.81;5060377;28;46041;-65
2024/03/03 11:07:36;;;;;;;;;22.75;20.75;;;;;11.15;71.00;99635.28;5078150;27;45566;-65
2024/03/03 11:10:01;;;;;;;;;24.25;21.25;;;;;11.18;70.81;99629.06;5066399;28;45271;-65
2024/03/03 11:12:27;;;;;;;;;26.25;21.75;;;;;11.31;71.19;99635.41;5072040;28;53076;-64
2024/03/03 11:14:56;;;;;;;;;34.00;30.25;;;;;11.35;70.44;99629.13;5063185;28;45408;-64
2024/03/03 11:17:23;;;;;;;;;17.00;14.25;;;;;11.36;70.72;99633.44;5080369;27;45469;-64
2024/03/03 11:19:49;;;;;;;;;42.25;31.00;;;;;11.32;70.74;99633.66;5070157;28;45325;-64